sensor_id;sensor_type;location;lat;lon;timestamp;P1;durP1;ratioP1;P2;durP2;ratioP2
66143;SDS011;52947;50.842;6.084;2024-01-25T00:00:41;77.47;;;16.67;;
66143;SDS011;52947;50.842;6.084;2024-01-25T00:03:09;77.20;;;16.33;;
66143;SDS011;52947;50.842;6.084;2024-01-25T00:05:37;67.65;;;12.80;;
66143;SDS011;52947;50.842;6.084;2024-01-25T00:08:05;91.65;;;17.38;;
66143;SDS011;52947;50.842;6.084;2024-01-25T00:10:33;74.70;;;16.55;;
66143;SDS011;52947;50.842;6.084;2024-01-25T00:13:03;85.80;;;15.00;;
66143;SDS011;52947;50.842;6.084;2024-01-25T00:15:31;75.97;;;13.27;;
66143;SDS011;52947;50.842;6.084;2024-01-25T00:17:59;68.35;;;14.13;;
66143;SDS011;52947;50.842;6.084;2024-01-25T00:20:27;81.75;;;14.95;;
66143;SDS011;52947;50.842;6.084;2024-01-25T00:22:56;81.60;;;15.68;;
66143;SDS011;52947;50.842;6.084;2024-01-25T00:25:24;81.47;;;16.52;;
66143;SDS011;52947;50.842;6.084;2024-01-25T00:27:52;100.70;;;15.85;;
66143;SDS011;52947;50.842;6.084;2024-01-25T00:30:21;77.35;;;13.70;;
66143;SDS011;52947;50.842;6.084;2024-01-25T00:32:49;98.45;;;15.20;;
66143;SDS011;52947;50.842;6.084;2024-01-25T00:35:18;82.40;;;13.55;;
66143;SDS011;52947;50.842;6.084;2024-01-25T00:37:46;87.43;;;14.68;;
66143;SDS011;52947;50.842;6.084;2024-01-25T00:40:15;79.70;;;16.77;;
66143;SDS011;52947;50.842;6.084;2024-01-25T00:42:45;83.00;;;15.35;;
66143;SDS011;52947;50.842;6.084;2024-01-25T00:45:39;69.07;;;14.85;;
66143;SDS011;52947;50.842;6.084;2024-01-25T00:48:09;88.88;;;13.73;;
66143;SDS011;52947;50.842;6.084;2024-01-25T00:50:38;100.68;;;16.98;;
66143;SDS011;52947;50.842;6.084;2024-01-25T00:53:07;87.20;;;13.43;;
66143;SDS011;52947;50.842;6.084;2024-01-25T00:55:36;89.25;;;16.63;;
66143;SDS011;52947;50.842;6.084;2024-01-25T00:58:05;72.75;;;14.52;;
66143;SDS011;52947;50.842;6.084;2024-01-25T01:00:33;88.35;;;16.10;;
66143;SDS011;52947;50.842;6.084;2024-01-25T01:03:04;77.68;;;16.58;;
66143;SDS011;52947;50.842;6.084;2024-01-25T01:05:33;96.95;;;15.20;;
66143;SDS011;52947;50.842;6.084;2024-01-25T01:08:01;103.03;;;17.08;;
66143;SDS011;52947;50.842;6.084;2024-01-25T01:10:30;69.95;;;15.05;;
66143;SDS011;52947;50.842;6.084;2024-01-25T01:12:58;85.47;;;17.67;;
66143;SDS011;52947;50.842;6.084;2024-01-25T01:15:26;97.90;;;20.02;;
66143;SDS011;52947;50.842;6.084;2024-01-25T01:17:54;81.65;;;16.15;;
66143;SDS011;52947;50.842;6.084;2024-01-25T01:20:24;74.50;;;12.43;;
66143;SDS011;52947;50.842;6.084;2024-01-25T01:22:52;66.15;;;12.07;;
66143;SDS011;52947;50.842;6.084;2024-01-25T01:25:20;70.63;;;12.98;;
66143;SDS011;52947;50.842;6.084;2024-01-25T01:27:49;79.30;;;12.80;;
66143;SDS011;52947;50.842;6.084;2024-01-25T01:30:17;95.50;;;17.63;;
66143;SDS011;52947;50.842;6.084;2024-01-25T01:32:45;85.53;;;17.55;;
66143;SDS011;52947;50.842;6.084;2024-01-25T01:35:13;64.45;;;14.10;;
66143;SDS011;52947;50.842;6.084;2024-01-25T01:37:43;68.60;;;14.48;;
66143;SDS011;52947;50.842;6.084;2024-01-25T01:40:11;78.20;;;16.13;;
66143;SDS011;52947;50.842;6.084;2024-01-25T01:42:39;93.88;;;17.63;;
66143;SDS011;52947;50.842;6.084;2024-01-25T01:45:08;98.22;;;15.65;;
66143;SDS011;52947;50.842;6.084;2024-01-25T01:47:39;75.85;;;12.95;;
66143;SDS011;52947;50.842;6.084;2024-01-25T01:50:08;66.85;;;15.63;;
66143;SDS011;52947;50.842;6.084;2024-01-25T01:52:37;78.38;;;16.38;;
66143;SDS011;52947;50.842;6.084;2024-01-25T01:55:07;88.85;;;17.08;;
66143;SDS011;52947;50.842;6.084;2024-01-25T01:57:36;105.15;;;16.85;;
66143;SDS011;52947;50.842;6.084;2024-01-25T02:00:05;82.32;;;14.25;;
66143;SDS011;52947;50.842;6.084;2024-01-25T02:02:38;87.80;;;17.75;;
66143;SDS011;52947;50.842;6.084;2024-01-25T02:05:06;92.15;;;16.35;;
66143;SDS011;52947;50.842;6.084;2024-01-25T02:07:35;85.25;;;15.95;;
66143;SDS011;52947;50.842;6.084;2024-01-25T02:10:05;83.80;;;15.38;;
66143;SDS011;52947;50.842;6.084;2024-01-25T02:12:35;96.25;;;15.02;;
66143;SDS011;52947;50.842;6.084;2024-01-25T02:15:03;81.45;;;14.60;;
66143;SDS011;52947;50.842;6.084;2024-01-25T02:17:32;77.90;;;17.40;;
66143;SDS011;52947;50.842;6.084;2024-01-25T02:20:01;95.15;;;14.63;;
66143;SDS011;52947;50.842;6.084;2024-01-25T02:22:31;93.38;;;15.70;;
66143;SDS011;52947;50.842;6.084;2024-01-25T02:24:59;88.05;;;15.38;;
66143;SDS011;52947;50.842;6.084;2024-01-25T02:27:27;96.15;;;19.10;;
66143;SDS011;52947;50.842;6.084;2024-01-25T02:29:55;81.43;;;14.35;;
66143;SDS011;52947;50.842;6.084;2024-01-25T02:32:23;85.03;;;15.55;;
66143;SDS011;52947;50.842;6.084;2024-01-25T02:34:51;46.50;;;13.25;;
66143;SDS011;52947;50.842;6.084;2024-01-25T02:37:19;69.45;;;13.60;;
66143;SDS011;52947;50.842;6.084;2024-01-25T02:39:48;77.35;;;14.00;;
66143;SDS011;52947;50.842;6.084;2024-01-25T02:42:17;70.32;;;13.35;;
66143;SDS011;52947;50.842;6.084;2024-01-25T02:44:45;75.65;;;17.38;;
66143;SDS011;52947;50.842;6.084;2024-01-25T02:47:13;82.80;;;14.00;;
66143;SDS011;52947;50.842;6.084;2024-01-25T02:49:42;73.50;;;13.57;;
66143;SDS011;52947;50.842;6.084;2024-01-25T02:52:10;72.10;;;12.25;;
66143;SDS011;52947;50.842;6.084;2024-01-25T02:54:38;55.83;;;13.88;;
66143;SDS011;52947;50.842;6.084;2024-01-25T02:57:07;91.57;;;14.35;;
66143;SDS011;52947;50.842;6.084;2024-01-25T02:59:35;68.50;;;12.30;;
66143;SDS011;52947;50.842;6.084;2024-01-25T03:02:03;82.82;;;14.10;;
66143;SDS011;52947;50.842;6.084;2024-01-25T03:04:32;75.22;;;16.33;;
66143;SDS011;52947;50.842;6.084;2024-01-25T03:07:00;82.50;;;14.00;;
66143;SDS011;52947;50.842;6.084;2024-01-25T03:09:28;73.88;;;12.88;;
66143;SDS011;52947;50.842;6.084;2024-01-25T03:11:56;85.65;;;15.48;;
66143;SDS011;52947;50.842;6.084;2024-01-25T03:14:26;63.22;;;13.05;;
66143;SDS011;52947;50.842;6.084;2024-01-25T03:16:54;80.15;;;14.13;;
66143;SDS011;52947;50.842;6.084;2024-01-25T03:19:23;77.53;;;12.27;;
66143;SDS011;52947;50.842;6.084;2024-01-25T03:21:52;85.43;;;16.08;;
66143;SDS011;52947;50.842;6.084;2024-01-25T03:24:21;100.80;;;18.42;;
66143;SDS011;52947;50.842;6.084;2024-01-25T03:26:49;97.63;;;16.63;;
66143;SDS011;52947;50.842;6.084;2024-01-25T03:29:17;88.43;;;14.02;;
66143;SDS011;52947;50.842;6.084;2024-01-25T03:31:46;58.30;;;15.20;;
66143;SDS011;52947;50.842;6.084;2024-01-25T03:34:14;64.82;;;13.27;;
66143;SDS011;52947;50.842;6.084;2024-01-25T03:36:43;62.50;;;12.07;;
66143;SDS011;52947;50.842;6.084;2024-01-25T03:39:11;76.32;;;13.00;;
66143;SDS011;52947;50.842;6.084;2024-01-25T03:41:39;69.60;;;13.95;;
66143;SDS011;52947;50.842;6.084;2024-01-25T03:44:06;89.75;;;13.27;;
66143;SDS011;52947;50.842;6.084;2024-01-25T03:46:35;70.93;;;12.98;;
66143;SDS011;52947;50.842;6.084;2024-01-25T03:49:04;71.53;;;14.15;;
66143;SDS011;52947;50.842;6.084;2024-01-25T03:51:32;78.38;;;13.80;;
66143;SDS011;52947;50.842;6.084;2024-01-25T03:54:00;74.25;;;13.32;;
66143;SDS011;52947;50.842;6.084;2024-01-25T03:56:28;83.22;;;15.10;;
66143;SDS011;52947;50.842;6.084;2024-01-25T03:58:56;78.20;;;14.85;;
66143;SDS011;52947;50.842;6.084;2024-01-25T04:01:24;85.95;;;16.33;;
66143;SDS011;52947;50.842;6.084;2024-01-25T04:03:57;100.57;;;17.15;;
66143;SDS011;52947;50.842;6.084;2024-01-25T04:06:26;77.50;;;14.65;;
66143;SDS011;52947;50.842;6.084;2024-01-25T04:08:55;81.60;;;14.55;;
66143;SDS011;52947;50.842;6.084;2024-01-25T04:11:22;73.07;;;16.20;;
66143;SDS011;52947;50.842;6.084;2024-01-25T04:13:54;93.30;;;18.10;;
66143;SDS011;52947;50.842;6.084;2024-01-25T04:16:22;74.72;;;13.88;;
66143;SDS011;52947;50.842;6.084;2024-01-25T04:18:50;99.43;;;18.95;;
66143;SDS011;52947;50.842;6.084;2024-01-25T04:21:18;71.03;;;15.13;;
66143;SDS011;52947;50.842;6.084;2024-01-25T04:23:48;88.03;;;17.65;;
66143;SDS011;52947;50.842;6.084;2024-01-25T04:26:16;96.53;;;19.33;;
66143;SDS011;52947;50.842;6.084;2024-01-25T04:28:44;99.90;;;17.30;;
66143;SDS011;52947;50.842;6.084;2024-01-25T04:31:12;74.82;;;15.25;;
66143;SDS011;52947;50.842;6.084;2024-01-25T04:33:40;59.00;;;14.35;;
66143;SDS011;52947;50.842;6.084;2024-01-25T04:36:14;68.70;;;13.02;;
66143;SDS011;52947;50.842;6.084;2024-01-25T04:38:42;71.38;;;16.92;;
66143;SDS011;52947;50.842;6.084;2024-01-25T04:41:12;100.72;;;15.15;;
66143;SDS011;52947;50.842;6.084;2024-01-25T04:43:39;85.18;;;18.60;;
66143;SDS011;52947;50.842;6.084;2024-01-25T04:46:08;90.85;;;18.58;;
66143;SDS011;52947;50.842;6.084;2024-01-25T04:48:37;87.75;;;17.40;;
66143;SDS011;52947;50.842;6.084;2024-01-25T04:51:06;92.63;;;15.77;;
66143;SDS011;52947;50.842;6.084;2024-01-25T04:53:35;65.25;;;13.43;;
66143;SDS011;52947;50.842;6.084;2024-01-25T04:56:03;99.15;;;20.17;;
66143;SDS011;52947;50.842;6.084;2024-01-25T04:58:33;79.25;;;15.35;;
66143;SDS011;52947;50.842;6.084;2024-01-25T05:01:01;86.72;;;15.07;;
66143;SDS011;52947;50.842;6.084;2024-01-25T05:03:29;100.40;;;18.17;;
66143;SDS011;52947;50.842;6.084;2024-01-25T05:05:58;74.53;;;16.08;;
66143;SDS011;52947;50.842;6.084;2024-01-25T05:08:26;105.60;;;21.17;;
66143;SDS011;52947;50.842;6.084;2024-01-25T05:10:54;102.53;;;16.75;;
66143;SDS011;52947;50.842;6.084;2024-01-25T05:13:22;103.55;;;19.05;;
66143;SDS011;52947;50.842;6.084;2024-01-25T05:15:51;92.47;;;18.25;;
66143;SDS011;52947;50.842;6.084;2024-01-25T05:18:19;93.97;;;18.77;;
66143;SDS011;52947;50.842;6.084;2024-01-25T05:20:47;88.45;;;16.70;;
66143;SDS011;52947;50.842;6.084;2024-01-25T05:23:15;107.68;;;17.55;;
66143;SDS011;52947;50.842;6.084;2024-01-25T05:25:43;99.68;;;17.67;;
66143;SDS011;52947;50.842;6.084;2024-01-25T05:28:11;71.53;;;15.75;;
66143;SDS011;52947;50.842;6.084;2024-01-25T05:30:39;89.70;;;17.88;;
66143;SDS011;52947;50.842;6.084;2024-01-25T05:33:08;81.93;;;18.70;;
66143;SDS011;52947;50.842;6.084;2024-01-25T05:35:37;94.45;;;18.00;;
66143;SDS011;52947;50.842;6.084;2024-01-25T05:38:07;102.50;;;20.98;;
66143;SDS011;52947;50.842;6.084;2024-01-25T05:40:37;108.13;;;17.15;;
66143;SDS011;52947;50.842;6.084;2024-01-25T05:43:05;103.20;;;16.92;;
66143;SDS011;52947;50.842;6.084;2024-01-25T05:45:33;99.28;;;18.67;;
66143;SDS011;52947;50.842;6.084;2024-01-25T05:48:01;85.72;;;16.75;;
66143;SDS011;52947;50.842;6.084;2024-01-25T05:50:31;95.30;;;20.38;;
66143;SDS011;52947;50.842;6.084;2024-01-25T05:52:59;83.93;;;17.48;;
66143;SDS011;52947;50.842;6.084;2024-01-25T05:55:27;110.20;;;16.75;;
66143;SDS011;52947;50.842;6.084;2024-01-25T05:57:55;105.53;;;18.08;;
66143;SDS011;52947;50.842;6.084;2024-01-25T06:00:24;102.57;;;18.95;;
66143;SDS011;52947;50.842;6.084;2024-01-25T06:02:52;84.38;;;15.45;;
66143;SDS011;52947;50.842;6.084;2024-01-25T06:05:20;97.80;;;14.98;;
66143;SDS011;52947;50.842;6.084;2024-01-25T06:07:49;95.65;;;18.58;;
66143;SDS011;52947;50.842;6.084;2024-01-25T06:10:18;88.78;;;17.38;;
66143;SDS011;52947;50.842;6.084;2024-01-25T06:12:46;109.82;;;20.33;;
66143;SDS011;52947;50.842;6.084;2024-01-25T06:15:14;100.25;;;15.88;;
66143;SDS011;52947;50.842;6.084;2024-01-25T06:17:42;113.60;;;23.60;;
66143;SDS011;52947;50.842;6.084;2024-01-25T06:20:10;107.47;;;17.83;;
66143;SDS011;52947;50.842;6.084;2024-01-25T06:22:39;87.85;;;18.20;;
66143;SDS011;52947;50.842;6.084;2024-01-25T06:25:08;108.90;;;18.58;;
66143;SDS011;52947;50.842;6.084;2024-01-25T06:27:36;104.55;;;19.10;;
66143;SDS011;52947;50.842;6.084;2024-01-25T06:30:05;96.47;;;20.30;;
66143;SDS011;52947;50.842;6.084;2024-01-25T06:32:34;96.95;;;20.25;;
66143;SDS011;52947;50.842;6.084;2024-01-25T06:35:02;122.40;;;25.80;;
66143;SDS011;52947;50.842;6.084;2024-01-25T06:37:31;108.88;;;20.10;;
66143;SDS011;52947;50.842;6.084;2024-01-25T06:39:59;107.63;;;19.92;;
66143;SDS011;52947;50.842;6.084;2024-01-25T06:42:29;98.13;;;21.20;;
66143;SDS011;52947;50.842;6.084;2024-01-25T06:44:57;86.85;;;18.15;;
66143;SDS011;52947;50.842;6.084;2024-01-25T06:47:25;78.70;;;19.00;;
66143;SDS011;52947;50.842;6.084;2024-01-25T06:49:53;85.78;;;20.00;;
66143;SDS011;52947;50.842;6.084;2024-01-25T06:52:21;91.50;;;19.75;;
66143;SDS011;52947;50.842;6.084;2024-01-25T06:54:50;113.50;;;24.90;;
66143;SDS011;52947;50.842;6.084;2024-01-25T06:57:18;115.80;;;20.95;;
66143;SDS011;52947;50.842;6.084;2024-01-25T06:59:48;119.88;;;19.55;;
66143;SDS011;52947;50.842;6.084;2024-01-25T07:02:17;108.25;;;21.90;;
66143;SDS011;52947;50.842;6.084;2024-01-25T07:04:46;97.85;;;20.80;;
66143;SDS011;52947;50.842;6.084;2024-01-25T07:07:14;107.15;;;21.67;;
66143;SDS011;52947;50.842;6.084;2024-01-25T07:09:42;96.55;;;22.27;;
66143;SDS011;52947;50.842;6.084;2024-01-25T07:12:11;73.22;;;19.65;;
66143;SDS011;52947;50.842;6.084;2024-01-25T07:14:39;96.78;;;20.92;;
66143;SDS011;52947;50.842;6.084;2024-01-25T07:17:08;105.60;;;22.10;;
66143;SDS011;52947;50.842;6.084;2024-01-25T07:19:36;87.90;;;23.08;;
66143;SDS011;52947;50.842;6.084;2024-01-25T07:22:04;98.25;;;22.45;;
66143;SDS011;52947;50.842;6.084;2024-01-25T07:24:32;108.13;;;25.42;;
66143;SDS011;52947;50.842;6.084;2024-01-25T07:27:01;112.30;;;26.75;;
66143;SDS011;52947;50.842;6.084;2024-01-25T07:29:29;106.95;;;24.27;;
66143;SDS011;52947;50.842;6.084;2024-01-25T07:31:57;110.40;;;27.23;;
66143;SDS011;52947;50.842;6.084;2024-01-25T07:34:26;109.90;;;27.00;;
66143;SDS011;52947;50.842;6.084;2024-01-25T07:36:54;109.30;;;26.30;;
66143;SDS011;52947;50.842;6.084;2024-01-25T07:39:23;97.63;;;26.42;;
66143;SDS011;52947;50.842;6.084;2024-01-25T07:41:51;113.88;;;27.63;;
66143;SDS011;52947;50.842;6.084;2024-01-25T07:44:19;117.40;;;28.08;;
66143;SDS011;52947;50.842;6.084;2024-01-25T07:46:47;102.07;;;31.17;;
66143;SDS011;52947;50.842;6.084;2024-01-25T07:49:15;107.07;;;28.38;;
66143;SDS011;52947;50.842;6.084;2024-01-25T07:51:45;99.63;;;30.70;;
66143;SDS011;52947;50.842;6.084;2024-01-25T07:54:14;102.07;;;27.48;;
66143;SDS011;52947;50.842;6.084;2024-01-25T07:56:42;118.90;;;33.78;;
66143;SDS011;52947;50.842;6.084;2024-01-25T07:59:10;122.57;;;30.88;;
66143;SDS011;52947;50.842;6.084;2024-01-25T08:01:38;128.48;;;33.85;;
66143;SDS011;52947;50.842;6.084;2024-01-25T08:04:06;127.78;;;34.05;;
66143;SDS011;52947;50.842;6.084;2024-01-25T08:06:34;144.00;;;33.40;;
66143;SDS011;52947;50.842;6.084;2024-01-25T08:09:04;133.10;;;32.15;;
66143;SDS011;52947;50.842;6.084;2024-01-25T08:11:32;143.63;;;37.95;;
66143;SDS011;52947;50.842;6.084;2024-01-25T08:14:00;141.43;;;33.13;;
66143;SDS011;52947;50.842;6.084;2024-01-25T08:16:30;137.70;;;34.72;;
66143;SDS011;52947;50.842;6.084;2024-01-25T08:18:58;118.65;;;30.38;;
66143;SDS011;52947;50.842;6.084;2024-01-25T08:21:27;139.75;;;32.88;;
66143;SDS011;52947;50.842;6.084;2024-01-25T08:23:55;131.32;;;33.92;;
66143;SDS011;52947;50.842;6.084;2024-01-25T08:26:24;131.10;;;35.60;;
66143;SDS011;52947;50.842;6.084;2024-01-25T08:28:52;129.07;;;33.72;;
66143;SDS011;52947;50.842;6.084;2024-01-25T08:31:20;100.80;;;29.55;;
66143;SDS011;52947;50.842;6.084;2024-01-25T08:33:48;108.65;;;28.92;;
66143;SDS011;52947;50.842;6.084;2024-01-25T08:36:16;117.47;;;28.77;;
66143;SDS011;52947;50.842;6.084;2024-01-25T08:38:45;103.95;;;29.67;;
66143;SDS011;52947;50.842;6.084;2024-01-25T08:41:13;93.45;;;26.13;;
66143;SDS011;52947;50.842;6.084;2024-01-25T08:43:43;97.45;;;26.77;;
66143;SDS011;52947;50.842;6.084;2024-01-25T08:46:12;112.00;;;27.95;;
66143;SDS011;52947;50.842;6.084;2024-01-25T08:48:41;99.55;;;27.33;;
66143;SDS011;52947;50.842;6.084;2024-01-25T08:51:09;80.55;;;24.40;;
66143;SDS011;52947;50.842;6.084;2024-01-25T08:53:37;99.82;;;24.77;;
66143;SDS011;52947;50.842;6.084;2024-01-25T08:56:06;89.68;;;26.23;;
66143;SDS011;52947;50.842;6.084;2024-01-25T08:58:34;78.35;;;22.38;;
66143;SDS011;52947;50.842;6.084;2024-01-25T09:01:03;82.95;;;24.50;;
66143;SDS011;52947;50.842;6.084;2024-01-25T09:03:31;89.22;;;25.42;;
66143;SDS011;52947;50.842;6.084;2024-01-25T09:06:00;88.97;;;25.38;;
66143;SDS011;52947;50.842;6.084;2024-01-25T09:08:32;78.57;;;20.60;;
66143;SDS011;52947;50.842;6.084;2024-01-25T09:11:00;78.65;;;21.67;;
66143;SDS011;52947;50.842;6.084;2024-01-25T09:13:28;69.22;;;21.15;;
66143;SDS011;52947;50.842;6.084;2024-01-25T09:16:11;68.40;;;20.70;;
66143;SDS011;52947;50.842;6.084;2024-01-25T09:18:40;64.38;;;20.83;;
66143;SDS011;52947;50.842;6.084;2024-01-25T09:21:08;76.00;;;20.40;;
66143;SDS011;52947;50.842;6.084;2024-01-25T09:23:36;59.75;;;20.00;;
66143;SDS011;52947;50.842;6.084;2024-01-25T09:26:04;73.68;;;21.30;;
66143;SDS011;52947;50.842;6.084;2024-01-25T09:28:32;72.60;;;20.55;;
66143;SDS011;52947;50.842;6.084;2024-01-25T09:31:00;74.38;;;23.50;;
66143;SDS011;52947;50.842;6.084;2024-01-25T09:33:32;68.70;;;21.83;;
66143;SDS011;52947;50.842;6.084;2024-01-25T09:36:01;72.25;;;19.30;;
66143;SDS011;52947;50.842;6.084;2024-01-25T09:38:29;62.50;;;21.45;;
66143;SDS011;52947;50.842;6.084;2024-01-25T09:40:57;71.90;;;20.33;;
66143;SDS011;52947;50.842;6.084;2024-01-25T09:43:26;73.07;;;19.13;;
66143;SDS011;52947;50.842;6.084;2024-01-25T09:45:55;63.40;;;19.85;;
66143;SDS011;52947;50.842;6.084;2024-01-25T09:48:23;72.25;;;18.70;;
66143;SDS011;52947;50.842;6.084;2024-01-25T09:50:55;64.30;;;18.65;;
66143;SDS011;52947;50.842;6.084;2024-01-25T09:53:23;57.03;;;18.08;;
66143;SDS011;52947;50.842;6.084;2024-01-25T09:55:53;59.63;;;17.60;;
66143;SDS011;52947;50.842;6.084;2024-01-25T09:58:25;58.58;;;18.67;;
66143;SDS011;52947;50.842;6.084;2024-01-25T10:01:02;55.60;;;16.30;;
66143;SDS011;52947;50.842;6.084;2024-01-25T10:03:30;50.45;;;15.80;;
66143;SDS011;52947;50.842;6.084;2024-01-25T10:06:00;47.85;;;15.63;;
66143;SDS011;52947;50.842;6.084;2024-01-25T10:08:31;53.03;;;15.25;;
66143;SDS011;52947;50.842;6.084;2024-01-25T10:10:59;54.35;;;15.93;;
66143;SDS011;52947;50.842;6.084;2024-01-25T10:13:27;63.65;;;16.80;;
66143;SDS011;52947;50.842;6.084;2024-01-25T10:15:56;55.78;;;14.93;;
66143;SDS011;52947;50.842;6.084;2024-01-25T10:18:25;68.93;;;15.38;;
66143;SDS011;52947;50.842;6.084;2024-01-25T10:20:56;51.55;;;15.95;;
66143;SDS011;52947;50.842;6.084;2024-01-25T10:23:29;58.53;;;15.60;;
66143;SDS011;52947;50.842;6.084;2024-01-25T10:25:58;52.60;;;14.40;;
66143;SDS011;52947;50.842;6.084;2024-01-25T10:28:26;60.60;;;13.70;;
66143;SDS011;52947;50.842;6.084;2024-01-25T10:30:59;53.78;;;14.25;;
66143;SDS011;52947;50.842;6.084;2024-01-25T10:33:28;78.50;;;15.77;;
66143;SDS011;52947;50.842;6.084;2024-01-25T10:35:57;74.70;;;16.98;;
66143;SDS011;52947;50.842;6.084;2024-01-25T10:38:31;54.50;;;13.85;;
66143;SDS011;52947;50.842;6.084;2024-01-25T10:41:04;69.85;;;16.08;;
66143;SDS011;52947;50.842;6.084;2024-01-25T10:43:33;60.08;;;15.68;;
66143;SDS011;52947;50.842;6.084;2024-01-25T10:46:01;60.25;;;15.90;;
66143;SDS011;52947;50.842;6.084;2024-01-25T10:48:31;67.50;;;13.88;;
66143;SDS011;52947;50.842;6.084;2024-01-25T10:50:59;39.22;;;13.23;;
66143;SDS011;52947;50.842;6.084;2024-01-25T10:53:32;61.75;;;14.68;;
66143;SDS011;52947;50.842;6.084;2024-01-25T10:56:02;59.08;;;12.68;;
66143;SDS011;52947;50.842;6.084;2024-01-25T10:58:30;62.00;;;14.77;;
66143;SDS011;52947;50.842;6.084;2024-01-25T11:03:42;53.40;;;14.15;;
66143;SDS011;52947;50.842;6.084;2024-01-25T11:06:11;56.92;;;14.00;;
66143;SDS011;52947;50.842;6.084;2024-01-25T11:08:41;61.40;;;14.60;;
66143;SDS011;52947;50.842;6.084;2024-01-25T11:11:10;45.97;;;12.90;;
66143;SDS011;52947;50.842;6.084;2024-01-25T11:13:40;59.05;;;12.82;;
66143;SDS011;52947;50.842;6.084;2024-01-25T11:16:13;58.40;;;13.93;;
66143;SDS011;52947;50.842;6.084;2024-01-25T11:18:49;49.03;;;13.50;;
66143;SDS011;52947;50.842;6.084;2024-01-25T11:21:21;57.60;;;12.88;;
66143;SDS011;52947;50.842;6.084;2024-01-25T11:24:16;56.10;;;13.05;;
66143;SDS011;52947;50.842;6.084;2024-01-25T11:26:47;64.07;;;12.23;;
66143;SDS011;52947;50.842;6.084;2024-01-25T11:29:15;60.95;;;13.77;;
66143;SDS011;52947;50.842;6.084;2024-01-25T11:31:44;58.05;;;15.85;;
66143;SDS011;52947;50.842;6.084;2024-01-25T11:34:13;64.45;;;14.45;;
66143;SDS011;52947;50.842;6.084;2024-01-25T11:36:42;44.78;;;10.90;;
66143;SDS011;52947;50.842;6.084;2024-01-25T11:39:11;42.33;;;11.90;;
66143;SDS011;52947;50.842;6.084;2024-01-25T11:41:41;48.70;;;11.18;;
66143;SDS011;52947;50.842;6.084;2024-01-25T11:44:10;50.10;;;10.23;;
66143;SDS011;52947;50.842;6.084;2024-01-25T11:46:38;52.80;;;14.63;;
66143;SDS011;52947;50.842;6.084;2024-01-25T11:49:07;44.65;;;11.60;;
66143;SDS011;52947;50.842;6.084;2024-01-25T11:51:35;56.55;;;11.32;;
66143;SDS011;52947;50.842;6.084;2024-01-25T11:54:03;34.28;;;10.13;;
66143;SDS011;52947;50.842;6.084;2024-01-25T11:56:33;36.28;;;10.85;;
66143;SDS011;52947;50.842;6.084;2024-01-25T11:59:06;43.72;;;11.63;;
66143;SDS011;52947;50.842;6.084;2024-01-25T12:01:35;45.15;;;11.45;;
66143;SDS011;52947;50.842;6.084;2024-01-25T12:04:04;48.20;;;11.48;;
66143;SDS011;52947;50.842;6.084;2024-01-25T12:06:34;28.67;;;9.18;;
66143;SDS011;52947;50.842;6.084;2024-01-25T12:09:07;40.05;;;9.63;;
66143;SDS011;52947;50.842;6.084;2024-01-25T12:11:35;56.08;;;10.85;;
66143;SDS011;52947;50.842;6.084;2024-01-25T12:14:05;45.28;;;10.48;;
66143;SDS011;52947;50.842;6.084;2024-01-25T12:16:35;41.17;;;11.23;;
66143;SDS011;52947;50.842;6.084;2024-01-25T12:19:05;45.70;;;10.55;;
66143;SDS011;52947;50.842;6.084;2024-01-25T12:21:33;45.42;;;9.18;;
66143;SDS011;52947;50.842;6.084;2024-01-25T12:24:03;39.95;;;11.10;;
66143;SDS011;52947;50.842;6.084;2024-01-25T12:26:33;45.55;;;10.60;;
66143;SDS011;52947;50.842;6.084;2024-01-25T12:29:02;44.97;;;10.00;;
66143;SDS011;52947;50.842;6.084;2024-01-25T12:31:32;39.67;;;8.95;;
66143;SDS011;52947;50.842;6.084;2024-01-25T12:34:00;33.63;;;9.57;;
66143;SDS011;52947;50.842;6.084;2024-01-25T12:36:29;51.63;;;10.23;;
66143;SDS011;52947;50.842;6.084;2024-01-25T12:38:57;47.10;;;10.23;;
66143;SDS011;52947;50.842;6.084;2024-01-25T12:41:27;34.45;;;9.32;;
66143;SDS011;52947;50.842;6.084;2024-01-25T12:43:57;37.65;;;9.07;;
66143;SDS011;52947;50.842;6.084;2024-01-25T12:46:26;37.03;;;8.85;;
66143;SDS011;52947;50.842;6.084;2024-01-25T12:48:55;31.80;;;8.15;;
66143;SDS011;52947;50.842;6.084;2024-01-25T12:51:25;49.08;;;9.52;;
66143;SDS011;52947;50.842;6.084;2024-01-25T12:53:54;41.50;;;9.07;;
66143;SDS011;52947;50.842;6.084;2024-01-25T12:56:22;40.67;;;9.95;;
66143;SDS011;52947;50.842;6.084;2024-01-25T12:58:50;50.17;;;11.85;;
66143;SDS011;52947;50.842;6.084;2024-01-25T13:01:18;39.65;;;10.45;;
66143;SDS011;52947;50.842;6.084;2024-01-25T13:03:47;38.15;;;9.05;;
66143;SDS011;52947;50.842;6.084;2024-01-25T13:06:17;34.15;;;8.95;;
66143;SDS011;52947;50.842;6.084;2024-01-25T13:08:45;49.00;;;13.05;;
66143;SDS011;52947;50.842;6.084;2024-01-25T13:11:13;46.65;;;8.60;;
66143;SDS011;52947;50.842;6.084;2024-01-25T13:13:41;35.83;;;9.10;;
66143;SDS011;52947;50.842;6.084;2024-01-25T13:16:11;50.70;;;9.30;;
66143;SDS011;52947;50.842;6.084;2024-01-25T13:18:39;51.67;;;9.18;;
66143;SDS011;52947;50.842;6.084;2024-01-25T13:21:07;40.75;;;8.32;;
66143;SDS011;52947;50.842;6.084;2024-01-25T13:23:37;40.67;;;8.57;;
66143;SDS011;52947;50.842;6.084;2024-01-25T13:26:05;30.80;;;8.68;;
66143;SDS011;52947;50.842;6.084;2024-01-25T13:28:33;37.05;;;8.27;;
66143;SDS011;52947;50.842;6.084;2024-01-25T13:31:01;29.38;;;9.18;;
66143;SDS011;52947;50.842;6.084;2024-01-25T13:33:29;36.35;;;7.63;;
66143;SDS011;52947;50.842;6.084;2024-01-25T13:35:58;47.40;;;9.95;;
66143;SDS011;52947;50.842;6.084;2024-01-25T13:38:26;47.20;;;9.20;;
66143;SDS011;52947;50.842;6.084;2024-01-25T13:40:55;48.28;;;8.93;;
66143;SDS011;52947;50.842;6.084;2024-01-25T13:43:23;30.35;;;8.73;;
66143;SDS011;52947;50.842;6.084;2024-01-25T13:45:51;37.90;;;7.70;;
66143;SDS011;52947;50.842;6.084;2024-01-25T13:48:19;35.65;;;8.07;;
66143;SDS011;52947;50.842;6.084;2024-01-25T13:50:48;38.78;;;8.73;;
66143;SDS011;52947;50.842;6.084;2024-01-25T13:53:16;29.83;;;7.47;;
66143;SDS011;52947;50.842;6.084;2024-01-25T13:55:45;34.78;;;8.70;;
66143;SDS011;52947;50.842;6.084;2024-01-25T13:58:14;35.72;;;8.10;;
66143;SDS011;52947;50.842;6.084;2024-01-25T14:00:42;29.45;;;8.05;;
66143;SDS011;52947;50.842;6.084;2024-01-25T14:03:10;33.85;;;8.05;;
66143;SDS011;52947;50.842;6.084;2024-01-25T14:05:38;40.38;;;9.27;;
66143;SDS011;52947;50.842;6.084;2024-01-25T14:08:06;50.22;;;9.07;;
66143;SDS011;52947;50.842;6.084;2024-01-25T14:10:34;38.97;;;9.07;;
66143;SDS011;52947;50.842;6.084;2024-01-25T14:13:03;29.90;;;7.65;;
66143;SDS011;52947;50.842;6.084;2024-01-25T14:15:32;34.20;;;7.57;;
66143;SDS011;52947;50.842;6.084;2024-01-25T14:18:01;47.70;;;9.48;;
66143;SDS011;52947;50.842;6.084;2024-01-25T14:20:29;26.63;;;6.22;;
66143;SDS011;52947;50.842;6.084;2024-01-25T14:22:57;36.17;;;7.50;;
66143;SDS011;52947;50.842;6.084;2024-01-25T14:25:26;28.20;;;6.80;;
66143;SDS011;52947;50.842;6.084;2024-01-25T14:27:54;26.85;;;6.10;;
66143;SDS011;52947;50.842;6.084;2024-01-25T14:30:24;36.95;;;6.68;;
66143;SDS011;52947;50.842;6.084;2024-01-25T14:32:55;31.23;;;7.70;;